createdAt,value
2023-08-17T00:02:08.741Z,24.05
2023-08-17T00:04:36.437Z,24.17
2023-08-17T00:07:03.915Z,23.96
2023-08-17T00:09:31.277Z,23.82
2023-08-17T00:11:58.921Z,23.88
2023-08-17T00:14:26.376Z,23.99
2023-08-17T00:16:53.798Z,24.00
2023-08-17T00:19:21.479Z,24.17
2023-08-17T00:21:48.872Z,23.98
2023-08-17T00:24:16.290Z,23.96
2023-08-17T00:26:43.930Z,23.75
2023-08-17T00:29:11.588Z,23.65
2023-08-17T00:31:38.977Z,23.65
2023-08-17T00:34:06.615Z,23.59
2023-08-17T00:36:34.005Z,24.03
2023-08-17T00:39:02.181Z,23.98
2023-08-17T00:41:29.887Z,23.68
2023-08-17T00:43:57.749Z,23.91
2023-08-17T00:46:25.973Z,23.60
2023-08-17T00:48:54.097Z,23.56
2023-08-17T00:51:24.496Z,23.72
2023-08-17T00:53:52.277Z,23.56
2023-08-17T00:56:20.148Z,23.83
2023-08-17T00:58:47.544Z,23.71
2023-08-17T01:01:15.087Z,23.81
2023-08-17T01:03:43.026Z,23.51
2023-08-17T01:06:10.777Z,23.47
2023-08-17T01:08:38.223Z,23.58
2023-08-17T01:11:18.868Z,23.63
2023-08-17T01:13:50.504Z,23.71
2023-08-17T01:16:28.939Z,23.60
2023-08-17T01:18:56.940Z,23.36
2023-08-17T01:21:25.662Z,23.84
2023-08-17T01:23:53.067Z,23.66
2023-08-17T01:26:20.484Z,23.66
2023-08-17T01:28:48.304Z,23.56
2023-08-17T01:31:21.827Z,23.11
2023-08-17T01:33:53.091Z,23.08
2023-08-17T01:36:23.945Z,23.42
2023-08-17T01:38:52.478Z,23.44
2023-08-17T01:41:20.995Z,23.52
2023-08-17T01:43:49.087Z,23.45
2023-08-17T01:46:17.374Z,23.43
2023-08-17T01:48:45.540Z,23.41
2023-08-17T01:51:18.265Z,23.39
2023-08-17T01:53:46.111Z,23.31
2023-08-17T01:56:13.498Z,23.42
2023-08-17T01:58:40.859Z,23.32
2023-08-17T02:01:08.635Z,23.19
2023-08-17T02:03:36.366Z,23.30
2023-08-17T02:06:03.847Z,23.76
2023-08-17T02:08:31.444Z,23.71
2023-08-17T02:10:59.097Z,23.77
2023-08-17T02:13:28.416Z,23.66
2023-08-17T02:16:07.652Z,23.87
2023-08-17T02:18:36.037Z,23.62
2023-08-17T02:21:03.931Z,23.91
2023-08-17T02:23:31.313Z,23.86
2023-08-17T02:25:58.716Z,23.64
2023-08-17T02:28:26.381Z,23.57
2023-08-17T02:30:59.869Z,23.60
2023-08-17T02:33:28.653Z,23.38
2023-08-17T02:35:56.091Z,23.51
2023-08-17T02:38:23.913Z,23.59
2023-08-17T02:40:51.577Z,23.62
2023-08-17T02:43:19.190Z,23.69
2023-08-17T02:45:46.628Z,23.57
2023-08-17T02:48:14.299Z,23.67
2023-08-17T02:50:42.104Z,23.39
2023-08-17T02:53:09.747Z,23.53
2023-08-17T02:55:37.699Z,23.52
2023-08-17T02:58:05.140Z,23.50
2023-08-17T03:00:32.551Z,23.57
2023-08-17T03:03:00.416Z,23.53
2023-08-17T03:05:27.801Z,23.64
2023-08-17T03:07:55.837Z,23.92
2023-08-17T03:10:23.914Z,23.93
2023-08-17T03:12:52.029Z,24.01
2023-08-17T03:15:19.523Z,23.70
2023-08-17T03:17:47.428Z,23.93
2023-08-17T03:20:14.971Z,23.91
2023-08-17T03:22:42.462Z,23.75
2023-08-17T03:25:10.221Z,24.06
2023-08-17T03:27:37.975Z,23.66
2023-08-17T03:30:06.379Z,23.60
2023-08-17T03:32:34.072Z,24.05
2023-08-17T03:35:01.504Z,24.18
2023-08-17T03:37:29.092Z,24.14
2023-08-17T03:39:57.003Z,23.78
2023-08-17T03:42:24.462Z,23.48
2023-08-17T03:44:52.403Z,23.66
2023-08-17T03:47:20.252Z,23.80
2023-08-17T03:49:48.224Z,24.11
2023-08-17T03:52:15.628Z,23.68
2023-08-17T03:54:43.357Z,23.73
2023-08-17T03:57:10.773Z,23.85
2023-08-17T03:59:38.161Z,23.59
2023-08-17T04:02:05.838Z,24.09
2023-08-17T04:04:33.559Z,23.80
2023-08-17T04:07:01.107Z,23.96
2023-08-17T04:09:28.518Z,23.40
2023-08-17T04:11:58.348Z,23.19
2023-08-17T04:14:25.738Z,23.82
2023-08-17T04:16:53.338Z,23.49
2023-08-17T04:19:21.046Z,23.52
2023-08-17T04:21:48.436Z,23.80
2023-08-17T04:24:16.285Z,23.75
2023-08-17T04:26:44.004Z,23.60
2023-08-17T04:29:11.402Z,23.82
2023-08-17T04:31:39.979Z,23.54
2023-08-17T04:34:07.755Z,23.62
2023-08-17T04:36:35.229Z,23.72
2023-08-17T04:39:02.999Z,24.06
2023-08-17T04:41:30.663Z,24.04
2023-08-17T04:43:58.322Z,24.08
2023-08-17T04:46:25.774Z,24.13
2023-08-17T04:48:53.666Z,24.05
2023-08-17T04:51:22.054Z,24.00
2023-08-17T04:53:49.626Z,24.11
2023-08-17T04:56:17.539Z,24.02
2023-08-17T04:58:45.054Z,24.08
2023-08-17T05:01:14.280Z,24.33
2023-08-17T05:03:42.208Z,24.58
2023-08-17T05:06:09.841Z,24.44
2023-08-17T05:08:37.268Z,24.73
2023-08-17T05:11:05.011Z,24.76
2023-08-17T05:13:32.502Z,24.84
2023-08-17T05:16:00.283Z,24.88
2023-08-17T05:18:28.426Z,25.06
2023-08-17T05:20:56.006Z,25.60
2023-08-17T05:23:23.455Z,25.46
2023-08-17T05:25:51.529Z,25.50
2023-08-17T05:28:18.958Z,25.67
2023-08-17T05:30:46.464Z,25.81
2023-08-17T05:33:14.926Z,26.11
2023-08-17T05:35:43.567Z,26.12
2023-08-17T05:38:11.022Z,26.27
2023-08-17T05:40:38.668Z,26.37
2023-08-17T05:43:06.128Z,26.65
2023-08-17T05:45:37.853Z,26.70
2023-08-17T05:48:07.799Z,26.64
2023-08-17T05:50:35.776Z,26.48
2023-08-17T05:53:03.223Z,26.46
2023-08-17T05:55:30.865Z,26.54
2023-08-17T05:57:58.267Z,26.81
2023-08-17T06:00:25.683Z,26.63
2023-08-17T06:02:53.433Z,26.82
2023-08-17T06:05:21.041Z,27.17
2023-08-17T06:07:48.442Z,27.19
2023-08-17T06:10:16.070Z,27.27
2023-08-17T06:12:43.488Z,27.49
2023-08-17T06:15:11.048Z,27.48
2023-08-17T06:17:38.784Z,27.83
2023-08-17T06:20:08.294Z,28.21
2023-08-17T06:22:35.687Z,28.12
2023-08-17T06:25:04.513Z,28.15
2023-08-17T06:27:31.997Z,28.58
2023-08-17T06:29:59.409Z,28.73
2023-08-17T06:32:27.114Z,28.99
2023-08-17T06:34:55.248Z,28.98
2023-08-17T06:37:22.634Z,28.22
2023-08-17T06:39:50.332Z,27.82
2023-08-17T06:42:17.711Z,27.30
2023-08-17T06:44:45.141Z,28.09
2023-08-17T06:47:12.867Z,27.46
2023-08-17T06:49:40.249Z,27.88
2023-08-17T06:52:07.711Z,27.77
2023-08-17T06:54:35.392Z,27.73
2023-08-17T06:57:02.820Z,28.33
2023-08-17T06:59:30.252Z,28.09
2023-08-17T07:01:58.196Z,27.29
2023-08-17T07:04:25.801Z,27.80
2023-08-17T07:06:53.221Z,29.79
2023-08-17T07:09:21.806Z,29.78
2023-08-17T07:11:49.234Z,28.12
2023-08-17T07:14:16.609Z,27.77
2023-08-17T07:16:44.293Z,28.62
2023-08-17T07:19:12.590Z,28.40
2023-08-17T07:21:40.144Z,28.42
2023-08-17T07:24:15.151Z,28.24
2023-08-17T07:26:42.550Z,27.98
2023-08-17T07:29:10.432Z,28.80
2023-08-17T07:31:38.915Z,27.70
2023-08-17T07:34:06.840Z,28.26
2023-08-17T07:36:34.802Z,28.80
2023-08-17T07:39:02.280Z,28.30
2023-08-17T07:41:29.701Z,27.20
2023-08-17T07:43:57.397Z,27.50
2023-08-17T07:46:24.804Z,28.34
2023-08-17T07:48:52.213Z,28.27
2023-08-17T07:51:19.862Z,28.86
2023-08-17T07:53:47.272Z,28.57
2023-08-17T07:56:14.993Z,28.41
2023-08-17T07:58:42.641Z,29.06
2023-08-17T08:01:10.081Z,28.95
2023-08-17T08:03:37.776Z,28.92
2023-08-17T08:06:05.190Z,29.59
2023-08-17T08:08:32.612Z,29.67
2023-08-17T08:11:00.241Z,29.20
2023-08-17T08:13:27.644Z,29.33
2023-08-17T08:15:55.155Z,28.69
2023-08-17T08:18:22.872Z,28.84
2023-08-17T08:20:50.335Z,28.61
2023-08-17T08:23:17.896Z,28.87
2023-08-17T08:25:45.771Z,28.36
2023-08-17T08:28:13.179Z,29.01
2023-08-17T08:30:40.594Z,29.54
2023-08-17T08:33:08.293Z,28.72
2023-08-17T08:35:35.739Z,28.97
2023-08-17T08:38:03.238Z,29.34
2023-08-17T08:40:31.073Z,29.88
2023-08-17T08:42:58.895Z,30.61
2023-08-17T08:45:26.378Z,30.80
2023-08-17T08:47:54.167Z,31.49
2023-08-17T08:50:23.159Z,31.62
2023-08-17T08:53:00.922Z,29.93
2023-08-17T08:55:30.352Z,31.51
2023-08-17T08:57:57.802Z,31.69
2023-08-17T09:00:25.912Z,32.89
2023-08-17T09:02:53.652Z,32.64
2023-08-17T09:05:21.151Z,31.86
2023-08-17T09:07:49.693Z,30.90
2023-08-17T09:10:17.961Z,31.75
2023-08-17T09:12:49.114Z,30.74
2023-08-17T09:15:17.476Z,30.83
2023-08-17T09:17:45.651Z,31.42
2023-08-17T09:20:13.243Z,31.69
2023-08-17T09:22:44.647Z,31.88
2023-08-17T09:25:12.051Z,31.92
2023-08-17T09:27:39.600Z,30.95
2023-08-17T09:30:09.800Z,31.06
2023-08-17T09:32:37.319Z,31.12
2023-08-17T09:35:06.550Z,30.35
2023-08-17T09:37:34.389Z,30.71
2023-08-17T09:40:02.043Z,31.10
2023-08-17T09:42:29.707Z,30.99
2023-08-17T09:44:57.394Z,30.99
2023-08-17T09:47:24.878Z,30.94
2023-08-17T09:49:55.700Z,31.33
2023-08-17T09:52:25.282Z,31.76
2023-08-17T09:54:53.504Z,32.26
2023-08-17T09:57:23.175Z,33.20
2023-08-17T09:59:54.812Z,33.81
2023-08-17T10:02:24.842Z,34.18
2023-08-17T10:04:53.693Z,34.26
2023-08-17T10:07:21.950Z,34.15
2023-08-17T10:09:55.402Z,34.63
2023-08-17T10:12:24.588Z,35.92
2023-08-17T10:14:59.935Z,36.38
2023-08-17T10:17:28.283Z,35.68
2023-08-17T10:19:58.029Z,37.03
2023-08-17T10:22:44.097Z,37.47
2023-08-17T10:25:13.334Z,37.40
2023-08-17T10:27:43.907Z,37.12
2023-08-17T10:30:11.896Z,37.40
2023-08-17T10:32:39.999Z,37.25
2023-08-17T10:35:07.788Z,37.30
2023-08-17T10:37:35.809Z,38.41
2023-08-17T10:40:03.596Z,39.36
2023-08-17T10:42:36.194Z,38.05
2023-08-17T10:45:32.256Z,36.94
2023-08-17T10:48:12.010Z,34.67
2023-08-17T10:53:11.564Z,33.25
2023-08-17T10:55:43.298Z,34.03
2023-08-17T11:00:43.570Z,32.52
2023-08-17T11:03:18.294Z,33.35
2023-08-17T11:05:51.229Z,32.99
2023-08-17T11:08:22.453Z,32.92
2023-08-17T11:11:03.637Z,32.92
2023-08-17T11:13:35.751Z,33.46
2023-08-17T11:16:04.150Z,33.25
2023-08-17T11:18:32.965Z,31.30
2023-08-17T11:21:01.411Z,30.69
2023-08-17T11:23:30.506Z,30.80
2023-08-17T11:25:58.191Z,29.99
2023-08-17T11:28:25.773Z,29.72
2023-08-17T11:30:59.929Z,30.18
2023-08-17T11:33:28.108Z,30.78
2023-08-17T11:35:56.477Z,30.64
2023-08-17T11:38:23.980Z,30.92
2023-08-17T11:40:51.632Z,30.22
2023-08-17T11:43:22.190Z,31.28
2023-08-17T11:45:49.893Z,30.62
2023-08-17T11:48:19.327Z,29.92
2023-08-17T11:50:46.792Z,31.09
2023-08-17T11:53:14.169Z,30.33
2023-08-17T11:55:42.198Z,30.70
2023-08-17T11:58:10.298Z,28.95
2023-08-17T12:00:42.404Z,29.92
2023-08-17T12:03:10.196Z,29.25
2023-08-17T12:05:37.656Z,29.53
2023-08-17T12:08:05.096Z,29.03
2023-08-17T12:10:35.909Z,29.07
2023-08-17T12:13:03.294Z,29.34
2023-08-17T12:15:36.626Z,30.25
2023-08-17T12:18:05.099Z,30.80
2023-08-17T12:20:38.149Z,30.27
2023-08-17T12:23:05.841Z,30.44
2023-08-17T12:25:33.238Z,31.18
2023-08-17T12:28:01.864Z,31.23
2023-08-17T12:30:32.487Z,30.95
2023-08-17T12:33:00.306Z,30.57
2023-08-17T12:35:27.771Z,30.71
2023-08-17T12:37:55.507Z,31.16
2023-08-17T12:40:23.016Z,31.00
2023-08-17T12:42:50.506Z,31.09
2023-08-17T12:45:18.235Z,31.20
2023-08-17T12:47:45.649Z,31.59
2023-08-17T12:50:13.149Z,31.03
2023-08-17T12:52:40.822Z,30.75
2023-08-17T12:55:08.571Z,30.07
2023-08-17T12:57:36.686Z,29.94
2023-08-17T13:00:04.840Z,30.81
2023-08-17T13:02:32.282Z,31.31
2023-08-17T13:04:59.734Z,31.82
2023-08-17T13:07:27.412Z,32.03
2023-08-17T13:09:54.799Z,32.26
2023-08-17T13:12:22.224Z,32.23
2023-08-17T13:14:49.902Z,32.02
2023-08-17T13:17:18.456Z,32.14
2023-08-17T13:19:45.849Z,32.05
2023-08-17T13:22:13.539Z,31.99
2023-08-17T13:24:41.255Z,31.99
2023-08-17T13:27:08.930Z,32.06
2023-08-17T13:29:36.770Z,31.88
2023-08-17T13:32:04.218Z,32.05
2023-08-17T13:34:32.796Z,32.25
2023-08-17T13:37:00.442Z,32.35
2023-08-17T13:39:27.867Z,32.24
2023-08-17T13:41:55.273Z,32.21
2023-08-17T13:44:23.001Z,32.03
2023-08-17T13:46:50.391Z,32.03
2023-08-17T13:49:17.743Z,31.67
2023-08-17T13:51:45.457Z,31.95
2023-08-17T13:54:12.853Z,32.01
2023-08-17T13:56:40.303Z,32.60
2023-08-17T13:59:07.930Z,32.43
2023-08-17T14:01:35.448Z,32.46
2023-08-17T14:04:04.929Z,32.46
2023-08-17T14:06:33.526Z,32.63
2023-08-17T14:09:01.730Z,32.38
2023-08-17T14:11:29.426Z,32.70
2023-08-17T14:13:56.860Z,32.48
2023-08-17T14:16:24.315Z,32.75
2023-08-17T14:18:51.961Z,32.54
2023-08-17T14:21:19.393Z,32.75
2023-08-17T14:23:47.739Z,32.80
2023-08-17T14:26:15.410Z,32.90
2023-08-17T14:28:44.946Z,32.95
2023-08-17T14:31:18.709Z,33.06
2023-08-17T14:33:50.488Z,32.85
2023-08-17T14:36:20.830Z,32.78
2023-08-17T14:38:48.816Z,32.78
2023-08-17T14:41:16.229Z,32.71
2023-08-17T14:43:43.624Z,32.87
2023-08-17T14:48:41.594Z,32.50
2023-08-17T14:51:09.033Z,32.56
2023-08-17T14:53:40.016Z,32.34
2023-08-17T14:56:07.782Z,32.35
2023-08-17T14:58:35.204Z,32.40
2023-08-17T15:01:03.083Z,32.20
2023-08-17T15:03:30.568Z,32.31
2023-08-17T15:05:58.023Z,32.06
2023-08-17T15:08:25.641Z,31.76
2023-08-17T15:10:53.063Z,31.82
2023-08-17T15:13:21.273Z,31.56
2023-08-17T15:15:48.982Z,31.62
2023-08-17T15:18:16.468Z,31.57
2023-08-17T15:20:43.988Z,31.45
2023-08-17T15:23:11.722Z,31.61
2023-08-17T15:25:39.138Z,31.63
2023-08-17T15:28:06.478Z,31.52
2023-08-17T15:30:34.145Z,31.46
2023-08-17T15:33:01.522Z,31.42
2023-08-17T15:35:28.914Z,31.18
2023-08-17T15:37:56.567Z,31.07
2023-08-17T15:40:24.017Z,31.06
2023-08-17T15:42:51.545Z,31.37
2023-08-17T15:45:19.225Z,31.21
2023-08-17T15:47:46.647Z,31.07
2023-08-17T15:50:14.078Z,31.43
2023-08-17T15:52:41.785Z,31.49
2023-08-17T15:55:09.309Z,31.51
2023-08-17T15:57:37.759Z,31.57
2023-08-17T16:00:05.775Z,31.08
2023-08-17T16:02:36.385Z,31.17
2023-08-17T16:05:04.238Z,31.54
2023-08-17T16:07:31.647Z,31.65
2023-08-17T16:09:59.051Z,31.49
2023-08-17T16:12:26.759Z,31.28
2023-08-17T16:14:54.212Z,28.47
2023-08-17T16:17:21.596Z,28.44
2023-08-17T16:19:49.267Z,28.89
2023-08-17T16:22:17.615Z,29.53
2023-08-17T16:24:45.175Z,28.68
2023-08-17T16:27:12.862Z,28.50
2023-08-17T16:29:40.229Z,28.67
2023-08-17T16:32:09.634Z,29.00
2023-08-17T16:34:37.686Z,27.97
2023-08-17T16:37:05.203Z,27.66
2023-08-17T16:39:32.583Z,27.76
2023-08-17T16:42:00.255Z,28.73
2023-08-17T16:44:28.321Z,28.76
2023-08-17T16:46:56.151Z,28.51
2023-08-17T16:49:29.782Z,28.55
2023-08-17T16:51:59.163Z,28.68
2023-08-17T16:54:26.870Z,28.15
2023-08-17T16:56:54.546Z,28.36
2023-08-17T16:59:22.092Z,28.52
2023-08-17T17:01:49.758Z,27.74
2023-08-17T17:04:18.352Z,28.20
2023-08-17T17:06:46.049Z,27.45
2023-08-17T17:09:13.746Z,27.07
2023-08-17T17:11:41.181Z,27.79
2023-08-17T17:14:08.587Z,28.28
2023-08-17T17:16:36.270Z,28.25
2023-08-17T17:19:03.766Z,27.92
2023-08-17T17:21:31.136Z,28.27
2023-08-17T17:23:58.767Z,28.15
2023-08-17T17:26:26.226Z,28.20
2023-08-17T17:28:53.726Z,28.32
2023-08-17T17:31:21.859Z,27.75
2023-08-17T17:33:49.276Z,27.62
2023-08-17T17:36:16.678Z,27.64
2023-08-17T17:38:44.320Z,27.24
2023-08-17T17:41:11.758Z,27.34
2023-08-17T17:43:39.175Z,27.64
2023-08-17T17:46:06.849Z,27.38
2023-08-17T17:48:34.325Z,27.26
2023-08-17T17:51:01.750Z,27.25
2023-08-17T17:53:31.307Z,27.13
2023-08-17T17:55:58.719Z,27.35
2023-08-17T17:58:26.142Z,27.36
2023-08-17T18:00:54.700Z,27.20
2023-08-17T18:03:22.497Z,27.49
2023-08-17T18:05:49.962Z,27.45
2023-08-17T18:08:17.365Z,27.76
2023-08-17T18:10:45.158Z,27.48
2023-08-17T18:13:12.566Z,27.31
2023-08-17T18:15:40.214Z,27.20
2023-08-17T18:18:08.469Z,27.26
2023-08-17T18:20:36.050Z,26.75
2023-08-17T18:23:03.528Z,26.87
2023-08-17T18:25:31.190Z,27.12
2023-08-17T18:27:58.614Z,27.02
2023-08-17T18:30:26.030Z,27.17
2023-08-17T18:32:53.745Z,27.31
2023-08-17T18:35:22.215Z,27.22
2023-08-17T18:37:49.782Z,27.08
2023-08-17T18:40:20.841Z,27.03
2023-08-17T18:42:49.636Z,26.96
2023-08-17T18:45:20.390Z,26.96
2023-08-17T18:47:48.069Z,26.96
2023-08-17T18:50:16.027Z,26.96
2023-08-17T18:52:43.716Z,26.92
2023-08-17T18:55:14.032Z,26.77
2023-08-17T18:57:41.609Z,26.71
2023-08-17T19:00:12.518Z,26.57
2023-08-17T19:02:40.482Z,26.46
2023-08-17T19:05:10.975Z,26.76
2023-08-17T19:07:38.651Z,26.37
2023-08-17T19:10:06.688Z,26.90
2023-08-17T19:12:34.161Z,26.85
2023-08-17T19:15:01.836Z,26.86
2023-08-17T19:17:29.957Z,26.95
2023-08-17T19:19:57.645Z,26.83
2023-08-17T19:22:25.318Z,26.80
2023-08-17T19:24:52.810Z,26.79
2023-08-17T19:27:20.290Z,26.78
2023-08-17T19:29:48.153Z,26.58
2023-08-17T19:32:15.583Z,26.65
2023-08-17T19:34:43.027Z,26.61
2023-08-17T19:37:10.679Z,26.33
2023-08-17T19:39:38.050Z,26.70
2023-08-17T19:42:05.659Z,26.53
2023-08-17T19:44:33.605Z,26.41
2023-08-17T19:47:01.022Z,26.32
2023-08-17T19:49:28.535Z,26.46
2023-08-17T19:51:56.206Z,26.21
2023-08-17T19:54:23.634Z,26.15
2023-08-17T19:56:51.051Z,26.01
2023-08-17T19:59:18.726Z,25.78
2023-08-17T20:01:47.591Z,25.93
2023-08-17T20:04:15.250Z,25.83
2023-08-17T20:06:42.914Z,26.05
2023-08-17T20:09:10.950Z,25.93
2023-08-17T20:11:38.610Z,25.92
2023-08-17T20:14:05.988Z,25.96
2023-08-17T20:16:33.500Z,25.93
2023-08-17T20:19:01.214Z,25.45
2023-08-17T20:21:28.874Z,25.53
2023-08-17T20:23:57.036Z,25.32
2023-08-17T20:26:24.959Z,25.50
2023-08-17T20:28:52.535Z,25.48
2023-08-17T20:31:20.038Z,25.79
2023-08-17T20:33:47.772Z,25.68
2023-08-17T20:36:15.197Z,25.70
2023-08-17T20:38:43.167Z,25.87
2023-08-17T20:41:10.817Z,25.72
2023-08-17T20:43:38.209Z,25.63
2023-08-17T20:46:06.318Z,25.53
2023-08-17T20:48:34.499Z,25.60
2023-08-17T20:51:02.452Z,25.73
2023-08-17T20:53:29.872Z,25.40
2023-08-17T20:55:58.293Z,25.78
2023-08-17T20:58:25.721Z,25.91
2023-08-17T21:00:53.613Z,25.61
2023-08-17T21:03:21.371Z,25.07
2023-08-17T21:05:48.830Z,25.55
2023-08-17T21:08:16.269Z,25.50
2023-08-17T21:10:45.845Z,25.62
2023-08-17T21:13:13.259Z,25.73
2023-08-17T21:15:40.681Z,25.53
2023-08-17T21:18:08.456Z,25.51
2023-08-17T21:20:35.891Z,25.49
2023-08-17T21:23:03.348Z,25.64
2023-08-17T21:25:30.996Z,25.52
2023-08-17T21:27:58.413Z,25.51
2023-08-17T21:30:26.701Z,25.73
2023-08-17T21:32:54.514Z,25.64
2023-08-17T21:35:21.987Z,25.55
2023-08-17T21:37:49.393Z,25.59
2023-08-17T21:40:17.046Z,25.88
2023-08-17T21:42:44.513Z,25.67
2023-08-17T21:45:11.892Z,25.69
2023-08-17T21:47:39.556Z,25.64
2023-08-17T21:50:07.496Z,25.70
2023-08-17T21:52:35.387Z,25.75
2023-08-17T21:55:03.157Z,25.83
2023-08-17T21:57:30.908Z,25.65
2023-08-17T21:59:58.512Z,25.83
2023-08-17T22:02:26.203Z,25.55
2023-08-17T22:04:53.866Z,25.66
2023-08-17T22:07:21.255Z,25.64
2023-08-17T22:09:48.661Z,25.42
2023-08-17T22:12:16.295Z,25.58
2023-08-17T22:14:43.677Z,25.61
2023-08-17T22:17:11.292Z,25.39
2023-08-17T22:19:38.990Z,25.47
2023-08-17T22:22:06.360Z,25.63
2023-08-17T22:24:45.277Z,25.67
2023-08-17T22:27:18.399Z,25.47
2023-08-17T22:29:45.868Z,25.21
2023-08-17T22:32:13.304Z,25.39
2023-08-17T22:34:41.007Z,25.41
2023-08-17T22:37:09.368Z,25.31
2023-08-17T22:39:36.963Z,25.37
2023-08-17T22:42:04.825Z,25.37
2023-08-17T22:44:32.285Z,25.48
2023-08-17T22:46:59.669Z,25.60
2023-08-17T22:49:27.520Z,25.41
2023-08-17T22:51:54.898Z,25.40
2023-08-17T22:54:22.394Z,25.60
2023-08-17T22:56:50.172Z,25.19
2023-08-17T22:59:18.065Z,25.58
2023-08-17T23:01:45.549Z,25.46
2023-08-17T23:04:13.174Z,25.33
2023-08-17T23:06:40.517Z,24.98
2023-08-17T23:09:07.872Z,25.12
2023-08-17T23:11:35.513Z,25.51
2023-08-17T23:14:02.904Z,25.07
2023-08-17T23:16:30.392Z,24.74
2023-08-17T23:18:59.035Z,24.87
2023-08-17T23:21:26.519Z,24.86
2023-08-17T23:23:54.257Z,25.16
2023-08-17T23:26:22.303Z,24.81
2023-08-17T23:28:49.729Z,24.66
2023-08-17T23:31:17.543Z,24.94
2023-08-17T23:33:45.193Z,25.01
2023-08-17T23:36:12.552Z,24.89
2023-08-17T23:38:40.215Z,24.63
2023-08-17T23:41:07.875Z,24.66
2023-08-17T23:43:35.306Z,24.51
2023-08-17T23:46:02.673Z,24.79
2023-08-17T23:48:30.446Z,24.68
2023-08-17T23:50:57.823Z,24.57
2023-08-17T23:53:25.251Z,24.53
2023-08-17T23:55:53.013Z,24.73
2023-08-17T23:58:20.495Z,24.76
